sensor_id;sensor_type;location;lat;lon;timestamp;temperature;humidity
61201;DHT22;47065;52.898;6.992;2023-05-14T00:00:49;11.30;99.90
61201;DHT22;47065;52.898;6.992;2023-05-14T00:03:15;11.30;99.90
61201;DHT22;47065;52.898;6.992;2023-05-14T00:05:41;11.30;99.90
61201;DHT22;47065;52.898;6.992;2023-05-14T00:08:06;11.40;99.90
61201;DHT22;47065;52.898;6.992;2023-05-14T00:10:32;11.30;99.90
61201;DHT22;47065;52.898;6.992;2023-05-14T00:12:58;11.40;99.90
61201;DHT22;47065;52.898;6.992;2023-05-14T00:15:23;11.40;99.90
61201;DHT22;47065;52.898;6.992;2023-05-14T00:17:49;11.40;99.90
61201;DHT22;47065;52.898;6.992;2023-05-14T00:20:14;11.40;99.90
61201;DHT22;47065;52.898;6.992;2023-05-14T00:22:40;11.40;99.90
61201;DHT22;47065;52.898;6.992;2023-05-14T00:25:07;11.40;99.90
61201;DHT22;47065;52.898;6.992;2023-05-14T00:27:33;11.40;99.90
61201;DHT22;47065;52.898;6.992;2023-05-14T00:29:59;11.30;99.90
61201;DHT22;47065;52.898;6.992;2023-05-14T00:32:24;11.30;99.90
61201;DHT22;47065;52.898;6.992;2023-05-14T00:34:50;11.30;99.90
61201;DHT22;47065;52.898;6.992;2023-05-14T00:37:16;11.30;99.90
61201;DHT22;47065;52.898;6.992;2023-05-14T00:39:41;11.30;99.90
61201;DHT22;47065;52.898;6.992;2023-05-14T00:42:07;11.30;99.90
61201;DHT22;47065;52.898;6.992;2023-05-14T00:44:33;11.30;99.90
61201;DHT22;47065;52.898;6.992;2023-05-14T00:46:59;11.20;99.90
61201;DHT22;47065;52.898;6.992;2023-05-14T00:49:25;11.20;99.90
61201;DHT22;47065;52.898;6.992;2023-05-14T00:51:51;11.20;99.90
61201;DHT22;47065;52.898;6.992;2023-05-14T00:54:18;11.20;99.90
61201;DHT22;47065;52.898;6.992;2023-05-14T00:56:45;11.10;99.90
61201;DHT22;47065;52.898;6.992;2023-05-14T00:59:12;11.10;99.90
61201;DHT22;47065;52.898;6.992;2023-05-14T01:01:38;11.10;99.90
61201;DHT22;47065;52.898;6.992;2023-05-14T01:04:04;11.00;99.90
61201;DHT22;47065;52.898;6.992;2023-05-14T01:09:17;11.00;99.90
61201;DHT22;47065;52.898;6.992;2023-05-14T01:14:39;10.90;99.90
61201;DHT22;47065;52.898;6.992;2023-05-14T01:17:09;10.90;99.90
61201;DHT22;47065;52.898;6.992;2023-05-14T01:19:41;10.90;99.90
61201;DHT22;47065;52.898;6.992;2023-05-14T01:22:07;10.90;99.90
61201;DHT22;47065;52.898;6.992;2023-05-14T01:24:33;10.90;99.90
61201;DHT22;47065;52.898;6.992;2023-05-14T01:27:08;10.90;99.90
61201;DHT22;47065;52.898;6.992;2023-05-14T01:29:37;10.90;99.90
61201;DHT22;47065;52.898;6.992;2023-05-14T01:32:05;10.90;99.90
61201;DHT22;47065;52.898;6.992;2023-05-14T01:34:33;10.90;99.90
61201;DHT22;47065;52.898;6.992;2023-05-14T01:37:00;10.90;99.90
61201;DHT22;47065;52.898;6.992;2023-05-14T01:39:26;10.80;99.90
61201;DHT22;47065;52.898;6.992;2023-05-14T01:41:53;10.80;99.90
61201;DHT22;47065;52.898;6.992;2023-05-14T01:44:20;10.80;99.90
61201;DHT22;47065;52.898;6.992;2023-05-14T01:46:46;10.80;99.90
61201;DHT22;47065;52.898;6.992;2023-05-14T01:49:11;10.80;99.90
61201;DHT22;47065;52.898;6.992;2023-05-14T01:51:37;10.80;99.90
61201;DHT22;47065;52.898;6.992;2023-05-14T01:54:03;10.80;99.90
61201;DHT22;47065;52.898;6.992;2023-05-14T01:56:28;10.80;99.90
61201;DHT22;47065;52.898;6.992;2023-05-14T01:58:54;10.70;99.90
61201;DHT22;47065;52.898;6.992;2023-05-14T02:01:21;10.70;99.90
61201;DHT22;47065;52.898;6.992;2023-05-14T02:03:47;10.70;99.90
61201;DHT22;47065;52.898;6.992;2023-05-14T02:06:12;10.70;99.90
61201;DHT22;47065;52.898;6.992;2023-05-14T02:08:38;10.70;99.90
61201;DHT22;47065;52.898;6.992;2023-05-14T02:11:03;10.60;99.90
61201;DHT22;47065;52.898;6.992;2023-05-14T02:13:29;10.60;99.90
61201;DHT22;47065;52.898;6.992;2023-05-14T02:15:55;10.60;99.90
61201;DHT22;47065;52.898;6.992;2023-05-14T02:18:20;10.60;99.90
61201;DHT22;47065;52.898;6.992;2023-05-14T02:20:46;10.60;99.90
61201;DHT22;47065;52.898;6.992;2023-05-14T02:23:12;10.60;99.90
61201;DHT22;47065;52.898;6.992;2023-05-14T02:25:37;10.60;99.90
61201;DHT22;47065;52.898;6.992;2023-05-14T02:28:03;10.50;99.90
61201;DHT22;47065;52.898;6.992;2023-05-14T02:30:29;10.50;99.90
61201;DHT22;47065;52.898;6.992;2023-05-14T02:32:55;10.50;99.90
61201;DHT22;47065;52.898;6.992;2023-05-14T02:35:21;10.50;99.90
61201;DHT22;47065;52.898;6.992;2023-05-14T02:37:47;10.50;99.90
61201;DHT22;47065;52.898;6.992;2023-05-14T02:40:13;10.40;99.90
61201;DHT22;47065;52.898;6.992;2023-05-14T02:42:38;10.40;99.90
61201;DHT22;47065;52.898;6.992;2023-05-14T02:45:04;10.40;99.90
61201;DHT22;47065;52.898;6.992;2023-05-14T02:47:30;10.30;99.90
61201;DHT22;47065;52.898;6.992;2023-05-14T02:49:56;10.30;99.90
61201;DHT22;47065;52.898;6.992;2023-05-14T02:52:21;10.20;99.90
61201;DHT22;47065;52.898;6.992;2023-05-14T02:54:47;10.20;99.90
61201;DHT22;47065;52.898;6.992;2023-05-14T02:57:13;10.20;99.90
61201;DHT22;47065;52.898;6.992;2023-05-14T02:59:38;10.10;99.90
61201;DHT22;47065;52.898;6.992;2023-05-14T03:02:04;10.10;99.90
61201;DHT22;47065;52.898;6.992;2023-05-14T03:04:29;10.10;99.90
61201;DHT22;47065;52.898;6.992;2023-05-14T03:06:55;10.10;99.90
61201;DHT22;47065;52.898;6.992;2023-05-14T03:09:21;10.00;99.90
61201;DHT22;47065;52.898;6.992;2023-05-14T03:11:46;10.00;99.90
61201;DHT22;47065;52.898;6.992;2023-05-14T03:14:12;10.00;99.90
61201;DHT22;47065;52.898;6.992;2023-05-14T03:16:38;10.00;99.90
61201;DHT22;47065;52.898;6.992;2023-05-14T03:19:06;9.90;99.90
61201;DHT22;47065;52.898;6.992;2023-05-14T03:21:32;9.90;99.90
61201;DHT22;47065;52.898;6.992;2023-05-14T03:23:58;9.90;99.90
61201;DHT22;47065;52.898;6.992;2023-05-14T03:26:23;9.80;99.90
61201;DHT22;47065;52.898;6.992;2023-05-14T03:28:49;9.80;99.90
61201;DHT22;47065;52.898;6.992;2023-05-14T03:31:15;9.80;99.90
61201;DHT22;47065;52.898;6.992;2023-05-14T03:33:41;9.80;99.90
61201;DHT22;47065;52.898;6.992;2023-05-14T03:36:06;9.70;99.90
61201;DHT22;47065;52.898;6.992;2023-05-14T03:38:32;9.60;99.90
61201;DHT22;47065;52.898;6.992;2023-05-14T03:40:58;9.40;99.90
61201;DHT22;47065;52.898;6.992;2023-05-14T03:43:23;9.40;99.90
61201;DHT22;47065;52.898;6.992;2023-05-14T03:45:49;9.30;99.90
61201;DHT22;47065;52.898;6.992;2023-05-14T03:48:17;9.30;99.90
61201;DHT22;47065;52.898;6.992;2023-05-14T03:50:43;9.30;99.90
61201;DHT22;47065;52.898;6.992;2023-05-14T03:53:09;9.30;99.90
61201;DHT22;47065;52.898;6.992;2023-05-14T03:55:35;9.20;99.90
61201;DHT22;47065;52.898;6.992;2023-05-14T03:58:01;9.20;99.90
61201;DHT22;47065;52.898;6.992;2023-05-14T04:00:27;9.30;99.90
61201;DHT22;47065;52.898;6.992;2023-05-14T04:02:53;9.30;99.90
61201;DHT22;47065;52.898;6.992;2023-05-14T04:05:19;9.30;99.90
61201;DHT22;47065;52.898;6.992;2023-05-14T04:07:45;9.30;99.90
61201;DHT22;47065;52.898;6.992;2023-05-14T04:10:11;9.30;99.90
61201;DHT22;47065;52.898;6.992;2023-05-14T04:12:37;9.30;99.90
61201;DHT22;47065;52.898;6.992;2023-05-14T04:15:03;9.30;99.90
61201;DHT22;47065;52.898;6.992;2023-05-14T04:17:29;9.40;99.90
61201;DHT22;47065;52.898;6.992;2023-05-14T04:19:54;9.30;99.90
61201;DHT22;47065;52.898;6.992;2023-05-14T04:22:20;9.30;99.90
61201;DHT22;47065;52.898;6.992;2023-05-14T04:24:45;9.30;99.90
61201;DHT22;47065;52.898;6.992;2023-05-14T04:27:18;9.30;99.90
61201;DHT22;47065;52.898;6.992;2023-05-14T04:29:43;9.40;99.90
61201;DHT22;47065;52.898;6.992;2023-05-14T04:32:09;9.40;99.90
61201;DHT22;47065;52.898;6.992;2023-05-14T04:34:36;9.40;99.90
61201;DHT22;47065;52.898;6.992;2023-05-14T04:37:02;9.40;99.90
61201;DHT22;47065;52.898;6.992;2023-05-14T04:39:28;9.40;99.90
61201;DHT22;47065;52.898;6.992;2023-05-14T04:41:54;9.40;99.90
61201;DHT22;47065;52.898;6.992;2023-05-14T04:44:20;9.40;99.90
61201;DHT22;47065;52.898;6.992;2023-05-14T04:46:45;9.40;99.90
61201;DHT22;47065;52.898;6.992;2023-05-14T04:49:11;9.50;99.90
61201;DHT22;47065;52.898;6.992;2023-05-14T04:51:37;9.50;99.90
61201;DHT22;47065;52.898;6.992;2023-05-14T04:54:02;9.50;99.90
61201;DHT22;47065;52.898;6.992;2023-05-14T04:56:28;9.50;99.90
61201;DHT22;47065;52.898;6.992;2023-05-14T04:58:54;9.50;99.90
61201;DHT22;47065;52.898;6.992;2023-05-14T05:01:19;9.60;99.90
61201;DHT22;47065;52.898;6.992;2023-05-14T05:03:46;9.60;99.90
61201;DHT22;47065;52.898;6.992;2023-05-14T05:06:12;9.60;99.90
61201;DHT22;47065;52.898;6.992;2023-05-14T05:08:37;9.70;99.90
61201;DHT22;47065;52.898;6.992;2023-05-14T05:11:03;9.70;99.90
61201;DHT22;47065;52.898;6.992;2023-05-14T05:13:29;9.80;99.90
61201;DHT22;47065;52.898;6.992;2023-05-14T05:15:56;9.80;99.90
61201;DHT22;47065;52.898;6.992;2023-05-14T05:18:22;9.80;99.90
61201;DHT22;47065;52.898;6.992;2023-05-14T05:20:47;9.90;99.90
61201;DHT22;47065;52.898;6.992;2023-05-14T05:23:13;9.90;99.90
61201;DHT22;47065;52.898;6.992;2023-05-14T05:25:39;10.00;99.90
61201;DHT22;47065;52.898;6.992;2023-05-14T05:28:04;10.00;99.90
61201;DHT22;47065;52.898;6.992;2023-05-14T05:30:30;10.10;99.90
61201;DHT22;47065;52.898;6.992;2023-05-14T05:32:55;10.10;99.90
61201;DHT22;47065;52.898;6.992;2023-05-14T05:35:21;10.10;99.90
61201;DHT22;47065;52.898;6.992;2023-05-14T05:37:47;10.20;99.90
61201;DHT22;47065;52.898;6.992;2023-05-14T05:40:13;10.20;99.90
61201;DHT22;47065;52.898;6.992;2023-05-14T05:42:39;10.20;99.90
61201;DHT22;47065;52.898;6.992;2023-05-14T05:45:05;10.30;99.90
61201;DHT22;47065;52.898;6.992;2023-05-14T05:47:31;10.40;99.90
61201;DHT22;47065;52.898;6.992;2023-05-14T05:49:57;10.40;99.90
61201;DHT22;47065;52.898;6.992;2023-05-14T05:52:22;10.50;99.90
61201;DHT22;47065;52.898;6.992;2023-05-14T05:54:48;10.60;99.90
61201;DHT22;47065;52.898;6.992;2023-05-14T05:57:14;10.70;99.90
61201;DHT22;47065;52.898;6.992;2023-05-14T05:59:39;10.80;99.90
61201;DHT22;47065;52.898;6.992;2023-05-14T06:02:05;10.80;99.90
61201;DHT22;47065;52.898;6.992;2023-05-14T06:04:31;10.90;99.90
61201;DHT22;47065;52.898;6.992;2023-05-14T06:06:56;11.00;99.90
61201;DHT22;47065;52.898;6.992;2023-05-14T06:09:22;11.10;99.90
61201;DHT22;47065;52.898;6.992;2023-05-14T06:11:48;11.10;99.90
61201;DHT22;47065;52.898;6.992;2023-05-14T06:14:14;11.30;99.90
61201;DHT22;47065;52.898;6.992;2023-05-14T06:16:39;11.30;99.90
61201;DHT22;47065;52.898;6.992;2023-05-14T06:19:05;11.40;99.90
61201;DHT22;47065;52.898;6.992;2023-05-14T06:21:31;11.50;99.90
61201;DHT22;47065;52.898;6.992;2023-05-14T06:23:56;11.60;99.90
61201;DHT22;47065;52.898;6.992;2023-05-14T06:26:22;11.60;99.90
61201;DHT22;47065;52.898;6.992;2023-05-14T06:28:47;11.70;99.90
61201;DHT22;47065;52.898;6.992;2023-05-14T06:31:13;11.70;99.90
61201;DHT22;47065;52.898;6.992;2023-05-14T06:33:39;11.80;99.90
61201;DHT22;47065;52.898;6.992;2023-05-14T06:36:05;11.90;99.90
61201;DHT22;47065;52.898;6.992;2023-05-14T06:38:31;11.90;99.90
61201;DHT22;47065;52.898;6.992;2023-05-14T06:40:57;12.00;99.90
61201;DHT22;47065;52.898;6.992;2023-05-14T06:43:22;12.00;99.90
61201;DHT22;47065;52.898;6.992;2023-05-14T06:45:49;12.10;99.90
61201;DHT22;47065;52.898;6.992;2023-05-14T06:48:15;12.10;99.90
61201;DHT22;47065;52.898;6.992;2023-05-14T06:50:43;12.20;99.90
61201;DHT22;47065;52.898;6.992;2023-05-14T06:53:09;12.30;99.90
61201;DHT22;47065;52.898;6.992;2023-05-14T06:55:35;12.30;99.90
61201;DHT22;47065;52.898;6.992;2023-05-14T06:58:01;12.30;99.90
61201;DHT22;47065;52.898;6.992;2023-05-14T07:00:27;12.40;99.90
61201;DHT22;47065;52.898;6.992;2023-05-14T07:02:52;12.50;99.90
61201;DHT22;47065;52.898;6.992;2023-05-14T07:05:18;12.60;99.90
61201;DHT22;47065;52.898;6.992;2023-05-14T07:07:43;12.60;99.90
61201;DHT22;47065;52.898;6.992;2023-05-14T07:10:09;12.70;99.90
61201;DHT22;47065;52.898;6.992;2023-05-14T07:12:35;12.90;99.90
61201;DHT22;47065;52.898;6.992;2023-05-14T07:15:01;13.00;99.90
61201;DHT22;47065;52.898;6.992;2023-05-14T07:17:26;13.10;99.90
61201;DHT22;47065;52.898;6.992;2023-05-14T07:19:52;13.20;99.90
61201;DHT22;47065;52.898;6.992;2023-05-14T07:22:20;13.30;99.90
61201;DHT22;47065;52.898;6.992;2023-05-14T07:24:46;13.40;99.90
61201;DHT22;47065;52.898;6.992;2023-05-14T07:27:11;13.60;99.90
61201;DHT22;47065;52.898;6.992;2023-05-14T07:29:37;13.70;99.90
61201;DHT22;47065;52.898;6.992;2023-05-14T07:32:03;13.80;99.90
61201;DHT22;47065;52.898;6.992;2023-05-14T07:34:29;13.90;99.90
61201;DHT22;47065;52.898;6.992;2023-05-14T07:36:55;14.10;99.90
61201;DHT22;47065;52.898;6.992;2023-05-14T07:39:20;14.20;99.90
61201;DHT22;47065;52.898;6.992;2023-05-14T07:41:46;14.40;99.90
61201;DHT22;47065;52.898;6.992;2023-05-14T07:44:11;14.50;99.90
61201;DHT22;47065;52.898;6.992;2023-05-14T07:46:37;14.60;99.90
61201;DHT22;47065;52.898;6.992;2023-05-14T07:49:03;14.80;99.90
61201;DHT22;47065;52.898;6.992;2023-05-14T07:51:29;15.00;99.90
61201;DHT22;47065;52.898;6.992;2023-05-14T07:53:54;15.10;99.90
61201;DHT22;47065;52.898;6.992;2023-05-14T07:56:23;15.20;99.90
61201;DHT22;47065;52.898;6.992;2023-05-14T07:58:49;15.40;99.90
61201;DHT22;47065;52.898;6.992;2023-05-14T08:01:15;15.60;99.90
61201;DHT22;47065;52.898;6.992;2023-05-14T08:03:41;15.70;99.90
61201;DHT22;47065;52.898;6.992;2023-05-14T08:06:07;15.90;99.90
61201;DHT22;47065;52.898;6.992;2023-05-14T08:08:32;16.00;99.90
61201;DHT22;47065;52.898;6.992;2023-05-14T08:10:58;16.00;99.90
61201;DHT22;47065;52.898;6.992;2023-05-14T08:13:25;16.20;99.90
61201;DHT22;47065;52.898;6.992;2023-05-14T08:15:50;16.30;99.90
61201;DHT22;47065;52.898;6.992;2023-05-14T08:18:16;16.40;99.90
61201;DHT22;47065;52.898;6.992;2023-05-14T08:20:42;16.50;99.90
61201;DHT22;47065;52.898;6.992;2023-05-14T08:23:08;16.60;99.90
61201;DHT22;47065;52.898;6.992;2023-05-14T08:25:33;16.70;99.90
61201;DHT22;47065;52.898;6.992;2023-05-14T08:27:59;16.80;99.90
61201;DHT22;47065;52.898;6.992;2023-05-14T08:30:26;16.90;99.90
61201;DHT22;47065;52.898;6.992;2023-05-14T08:32:52;17.00;99.90
61201;DHT22;47065;52.898;6.992;2023-05-14T08:35:17;17.10;99.90
61201;DHT22;47065;52.898;6.992;2023-05-14T08:37:43;17.20;99.90
61201;DHT22;47065;52.898;6.992;2023-05-14T08:40:09;17.30;99.90
61201;DHT22;47065;52.898;6.992;2023-05-14T08:42:37;17.40;99.90
61201;DHT22;47065;52.898;6.992;2023-05-14T08:45:18;17.50;99.90
61201;DHT22;47065;52.898;6.992;2023-05-14T08:47:48;17.70;99.90
61201;DHT22;47065;52.898;6.992;2023-05-14T08:50:15;17.90;99.90
61201;DHT22;47065;52.898;6.992;2023-05-14T08:52:41;18.20;99.90
61201;DHT22;47065;52.898;6.992;2023-05-14T08:55:07;18.70;99.90
61201;DHT22;47065;52.898;6.992;2023-05-14T08:57:34;19.40;99.90
61201;DHT22;47065;52.898;6.992;2023-05-14T09:00:01;20.10;99.90
61201;DHT22;47065;52.898;6.992;2023-05-14T09:02:30;20.90;99.90
61201;DHT22;47065;52.898;6.992;2023-05-14T09:04:58;21.40;99.90
61201;DHT22;47065;52.898;6.992;2023-05-14T09:07:24;21.60;99.90
61201;DHT22;47065;52.898;6.992;2023-05-14T09:09:51;21.70;99.90
61201;DHT22;47065;52.898;6.992;2023-05-14T09:12:18;21.90;99.90
61201;DHT22;47065;52.898;6.992;2023-05-14T09:14:44;22.30;99.90
61201;DHT22;47065;52.898;6.992;2023-05-14T09:17:10;22.70;99.40
61201;DHT22;47065;52.898;6.992;2023-05-14T09:19:41;23.10;95.70
61201;DHT22;47065;52.898;6.992;2023-05-14T09:22:15;23.60;92.50
61201;DHT22;47065;52.898;6.992;2023-05-14T09:24:41;23.80;83.50
61201;DHT22;47065;52.898;6.992;2023-05-14T09:27:08;24.10;82.40
61201;DHT22;47065;52.898;6.992;2023-05-14T09:29:34;24.20;78.50
61201;DHT22;47065;52.898;6.992;2023-05-14T09:32:00;24.20;73.30
61201;DHT22;47065;52.898;6.992;2023-05-14T09:34:33;24.20;72.20
61201;DHT22;47065;52.898;6.992;2023-05-14T09:37:08;24.10;72.80
61201;DHT22;47065;52.898;6.992;2023-05-14T09:39:35;24.10;75.00
61201;DHT22;47065;52.898;6.992;2023-05-14T09:42:01;24.30;72.00
61201;DHT22;47065;52.898;6.992;2023-05-14T09:44:27;24.30;70.00
61201;DHT22;47065;52.898;6.992;2023-05-14T09:46:53;24.30;69.70
61201;DHT22;47065;52.898;6.992;2023-05-14T09:49:19;24.30;67.90
61201;DHT22;47065;52.898;6.992;2023-05-14T09:51:45;24.30;65.10
61201;DHT22;47065;52.898;6.992;2023-05-14T09:54:11;24.20;64.00
61201;DHT22;47065;52.898;6.992;2023-05-14T09:56:37;24.10;62.70
61201;DHT22;47065;52.898;6.992;2023-05-14T09:59:04;24.10;64.00
61201;DHT22;47065;52.898;6.992;2023-05-14T10:01:30;24.30;63.50
61201;DHT22;47065;52.898;6.992;2023-05-14T10:03:57;24.30;63.00
61201;DHT22;47065;52.898;6.992;2023-05-14T10:06:27;24.50;65.00
61201;DHT22;47065;52.898;6.992;2023-05-14T10:09:00;24.70;62.50
61201;DHT22;47065;52.898;6.992;2023-05-14T10:11:32;25.00;61.70
61201;DHT22;47065;52.898;6.992;2023-05-14T10:14:06;25.30;59.60
61201;DHT22;47065;52.898;6.992;2023-05-14T10:16:34;25.60;59.90
61201;DHT22;47065;52.898;6.992;2023-05-14T10:19:07;26.20;59.30
61201;DHT22;47065;52.898;6.992;2023-05-14T10:21:35;26.60;57.70
61201;DHT22;47065;52.898;6.992;2023-05-14T10:24:05;26.80;56.80
61201;DHT22;47065;52.898;6.992;2023-05-14T10:26:31;26.90;55.80
61201;DHT22;47065;52.898;6.992;2023-05-14T10:28:58;26.70;56.30
61201;DHT22;47065;52.898;6.992;2023-05-14T10:31:50;26.40;57.80
61201;DHT22;47065;52.898;6.992;2023-05-14T10:36:59;25.60;55.90
61201;DHT22;47065;52.898;6.992;2023-05-14T10:39:39;25.30;56.90
61201;DHT22;47065;52.898;6.992;2023-05-14T10:42:07;25.00;56.80
61201;DHT22;47065;52.898;6.992;2023-05-14T10:44:34;25.00;58.90
61201;DHT22;47065;52.898;6.992;2023-05-14T10:47:01;25.20;59.00
61201;DHT22;47065;52.898;6.992;2023-05-14T10:49:26;25.40;57.30
61201;DHT22;47065;52.898;6.992;2023-05-14T10:51:52;25.30;57.60
61201;DHT22;47065;52.898;6.992;2023-05-14T10:54:18;25.20;56.20
61201;DHT22;47065;52.898;6.992;2023-05-14T10:56:47;25.00;57.40
61201;DHT22;47065;52.898;6.992;2023-05-14T10:59:15;24.80;57.60
61201;DHT22;47065;52.898;6.992;2023-05-14T11:01:42;24.60;58.20
61201;DHT22;47065;52.898;6.992;2023-05-14T11:04:07;24.30;59.40
61201;DHT22;47065;52.898;6.992;2023-05-14T11:06:34;24.20;59.20
61201;DHT22;47065;52.898;6.992;2023-05-14T11:09:02;24.30;59.50
61201;DHT22;47065;52.898;6.992;2023-05-14T11:11:28;24.40;59.80
61201;DHT22;47065;52.898;6.992;2023-05-14T11:13:54;24.40;58.30
61201;DHT22;47065;52.898;6.992;2023-05-14T11:16:20;24.50;58.60
61201;DHT22;47065;52.898;6.992;2023-05-14T11:18:52;24.40;58.30
61201;DHT22;47065;52.898;6.992;2023-05-14T11:21:18;24.30;59.70
61201;DHT22;47065;52.898;6.992;2023-05-14T11:23:45;24.10;60.90
61201;DHT22;47065;52.898;6.992;2023-05-14T11:26:11;24.10;61.20
61201;DHT22;47065;52.898;6.992;2023-05-14T11:28:37;24.20;60.60
61201;DHT22;47065;52.898;6.992;2023-05-14T11:31:03;24.20;60.60
61201;DHT22;47065;52.898;6.992;2023-05-14T11:33:30;24.20;60.50
61201;DHT22;47065;52.898;6.992;2023-05-14T11:35:56;24.20;60.60
61201;DHT22;47065;52.898;6.992;2023-05-14T11:38:21;24.30;61.20
61201;DHT22;47065;52.898;6.992;2023-05-14T11:40:54;24.30;62.10
61201;DHT22;47065;52.898;6.992;2023-05-14T11:43:19;24.40;60.30
61201;DHT22;47065;52.898;6.992;2023-05-14T11:45:54;24.30;60.40
61201;DHT22;47065;52.898;6.992;2023-05-14T11:48:21;24.20;60.50
61201;DHT22;47065;52.898;6.992;2023-05-14T11:50:50;24.20;61.30
61201;DHT22;47065;52.898;6.992;2023-05-14T11:53:25;24.20;61.50
61201;DHT22;47065;52.898;6.992;2023-05-14T11:55:52;24.30;60.90
61201;DHT22;47065;52.898;6.992;2023-05-14T11:58:18;24.40;60.30
61201;DHT22;47065;52.898;6.992;2023-05-14T12:00:44;24.50;59.90
61201;DHT22;47065;52.898;6.992;2023-05-14T12:03:10;24.50;60.30
61201;DHT22;47065;52.898;6.992;2023-05-14T12:05:40;24.60;60.20
61201;DHT22;47065;52.898;6.992;2023-05-14T12:08:21;24.80;55.90
61201;DHT22;47065;52.898;6.992;2023-05-14T12:10:47;25.10;56.90
61201;DHT22;47065;52.898;6.992;2023-05-14T12:13:16;25.50;57.60
61201;DHT22;47065;52.898;6.992;2023-05-14T12:15:59;25.80;55.70
61201;DHT22;47065;52.898;6.992;2023-05-14T12:18:28;26.00;53.50
61201;DHT22;47065;52.898;6.992;2023-05-14T12:20:55;26.00;54.00
61201;DHT22;47065;52.898;6.992;2023-05-14T12:23:29;25.90;54.90
61201;DHT22;47065;52.898;6.992;2023-05-14T12:25:59;25.70;54.20
61201;DHT22;47065;52.898;6.992;2023-05-14T12:28:25;25.60;54.70
61201;DHT22;47065;52.898;6.992;2023-05-14T12:30:56;25.60;55.50
61201;DHT22;47065;52.898;6.992;2023-05-14T12:33:22;25.50;54.30
61201;DHT22;47065;52.898;6.992;2023-05-14T12:35:48;25.50;54.60
61201;DHT22;47065;52.898;6.992;2023-05-14T12:38:14;25.50;55.20
61201;DHT22;47065;52.898;6.992;2023-05-14T12:40:40;25.40;54.20
61201;DHT22;47065;52.898;6.992;2023-05-14T12:43:05;25.30;54.70
61201;DHT22;47065;52.898;6.992;2023-05-14T12:45:31;25.40;55.70
61201;DHT22;47065;52.898;6.992;2023-05-14T12:47:57;25.30;56.90
61201;DHT22;47065;52.898;6.992;2023-05-14T12:50:22;25.30;56.70
61201;DHT22;47065;52.898;6.992;2023-05-14T12:52:48;25.30;57.20
61201;DHT22;47065;52.898;6.992;2023-05-14T12:55:13;25.10;55.00
61201;DHT22;47065;52.898;6.992;2023-05-14T12:57:39;25.10;56.40
61201;DHT22;47065;52.898;6.992;2023-05-14T13:00:06;25.10;55.50
61201;DHT22;47065;52.898;6.992;2023-05-14T13:02:34;25.00;55.60
61201;DHT22;47065;52.898;6.992;2023-05-14T13:04:59;25.00;56.20
61201;DHT22;47065;52.898;6.992;2023-05-14T13:07:27;24.90;56.80
61201;DHT22;47065;52.898;6.992;2023-05-14T13:09:55;24.80;56.70
61201;DHT22;47065;52.898;6.992;2023-05-14T13:12:22;24.90;55.90
61201;DHT22;47065;52.898;6.992;2023-05-14T13:14:47;24.90;56.30
61201;DHT22;47065;52.898;6.992;2023-05-14T13:17:13;24.90;55.80
61201;DHT22;47065;52.898;6.992;2023-05-14T13:19:39;25.00;56.10
61201;DHT22;47065;52.898;6.992;2023-05-14T13:22:04;25.10;54.10
61201;DHT22;47065;52.898;6.992;2023-05-14T13:24:30;25.10;54.80
61201;DHT22;47065;52.898;6.992;2023-05-14T13:26:55;25.00;55.50
61201;DHT22;47065;52.898;6.992;2023-05-14T13:29:21;24.90;55.00
61201;DHT22;47065;52.898;6.992;2023-05-14T13:31:47;24.80;55.50
61201;DHT22;47065;52.898;6.992;2023-05-14T13:34:12;24.60;53.30
61201;DHT22;47065;52.898;6.992;2023-05-14T13:36:38;24.40;52.10
61201;DHT22;47065;52.898;6.992;2023-05-14T13:39:07;24.30;53.20
61201;DHT22;47065;52.898;6.992;2023-05-14T13:41:33;24.30;54.00
61201;DHT22;47065;52.898;6.992;2023-05-14T13:44:02;24.40;55.10
61201;DHT22;47065;52.898;6.992;2023-05-14T13:46:28;24.50;54.60
61201;DHT22;47065;52.898;6.992;2023-05-14T13:48:54;24.40;54.50
61201;DHT22;47065;52.898;6.992;2023-05-14T13:51:21;24.30;53.90
61201;DHT22;47065;52.898;6.992;2023-05-14T13:53:47;24.30;54.50
61201;DHT22;47065;52.898;6.992;2023-05-14T13:56:12;24.20;54.90
61201;DHT22;47065;52.898;6.992;2023-05-14T13:58:38;24.20;56.30
61201;DHT22;47065;52.898;6.992;2023-05-14T14:01:04;24.40;55.70
61201;DHT22;47065;52.898;6.992;2023-05-14T14:03:29;24.40;55.20
61201;DHT22;47065;52.898;6.992;2023-05-14T14:05:55;24.30;54.70
61201;DHT22;47065;52.898;6.992;2023-05-14T14:08:21;24.20;55.40
61201;DHT22;47065;52.898;6.992;2023-05-14T14:10:46;24.20;55.70
61201;DHT22;47065;52.898;6.992;2023-05-14T14:13:12;24.00;56.00
61201;DHT22;47065;52.898;6.992;2023-05-14T14:15:38;24.00;56.70
61201;DHT22;47065;52.898;6.992;2023-05-14T14:18:03;24.00;55.40
61201;DHT22;47065;52.898;6.992;2023-05-14T14:20:30;24.00;53.20
61201;DHT22;47065;52.898;6.992;2023-05-14T14:22:56;24.00;52.80
61201;DHT22;47065;52.898;6.992;2023-05-14T14:25:21;24.00;52.50
61201;DHT22;47065;52.898;6.992;2023-05-14T14:27:47;24.10;53.70
61201;DHT22;47065;52.898;6.992;2023-05-14T14:30:14;24.10;54.50
61201;DHT22;47065;52.898;6.992;2023-05-14T14:32:47;24.00;55.80
61201;DHT22;47065;52.898;6.992;2023-05-14T14:35:14;24.00;56.40
61201;DHT22;47065;52.898;6.992;2023-05-14T14:37:41;24.00;56.30
61201;DHT22;47065;52.898;6.992;2023-05-14T14:40:09;23.90;56.80
61201;DHT22;47065;52.898;6.992;2023-05-14T14:42:36;23.80;55.50
61201;DHT22;47065;52.898;6.992;2023-05-14T14:45:03;24.10;54.10
61201;DHT22;47065;52.898;6.992;2023-05-14T14:47:29;24.20;54.50
61201;DHT22;47065;52.898;6.992;2023-05-14T14:49:55;24.30;55.40
61201;DHT22;47065;52.898;6.992;2023-05-14T14:52:22;24.30;55.40
61201;DHT22;47065;52.898;6.992;2023-05-14T14:54:48;24.20;55.00
61201;DHT22;47065;52.898;6.992;2023-05-14T14:57:13;24.20;54.90
61201;DHT22;47065;52.898;6.992;2023-05-14T14:59:39;24.10;55.60
61201;DHT22;47065;52.898;6.992;2023-05-14T15:02:06;24.00;55.20
61201;DHT22;47065;52.898;6.992;2023-05-14T15:04:33;24.00;53.00
61201;DHT22;47065;52.898;6.992;2023-05-14T15:06:59;24.20;53.40
61201;DHT22;47065;52.898;6.992;2023-05-14T15:09:25;24.30;54.40
61201;DHT22;47065;52.898;6.992;2023-05-14T15:11:51;24.20;54.10
61201;DHT22;47065;52.898;6.992;2023-05-14T15:14:16;24.20;55.60
61201;DHT22;47065;52.898;6.992;2023-05-14T15:16:42;24.00;55.40
61201;DHT22;47065;52.898;6.992;2023-05-14T15:19:08;23.80;55.20
61201;DHT22;47065;52.898;6.992;2023-05-14T15:21:33;23.70;55.30
61201;DHT22;47065;52.898;6.992;2023-05-14T15:23:59;23.60;55.00
61201;DHT22;47065;52.898;6.992;2023-05-14T15:26:25;23.60;55.20
61201;DHT22;47065;52.898;6.992;2023-05-14T15:28:51;23.80;53.70
61201;DHT22;47065;52.898;6.992;2023-05-14T15:31:16;24.00;51.20
61201;DHT22;47065;52.898;6.992;2023-05-14T15:33:42;24.10;54.40
61201;DHT22;47065;52.898;6.992;2023-05-14T15:36:07;24.20;55.10